createdAt,value
2022-08-05T00:01:36.467Z,96236.72
2022-08-05T00:04:17.659Z,96228.59
2022-08-05T00:06:47.214Z,96228.59
2022-08-05T00:09:15.931Z,96236.81
2022-08-05T00:11:49.143Z,96228.31
2022-08-05T00:14:22.853Z,96225.19
2022-08-05T00:16:56.454Z,96221.59
2022-08-05T00:19:24.677Z,96221.88
2022-08-05T00:21:52.613Z,96220.63
2022-08-05T00:24:24.809Z,96222.03
2022-08-05T00:26:58.597Z,96216.56
2022-08-05T00:29:26.216Z,96215.31
2022-08-05T00:32:12.765Z,96216.75
2022-08-05T00:35:05.525Z,96207.47
2022-08-05T00:37:50.738Z,96209.69
2022-08-05T00:40:26.767Z,96206.09
2022-08-05T00:42:58.018Z,96197.19
2022-08-05T00:45:38.822Z,96199.56
2022-08-05T00:48:15.933Z,96194.13
2022-08-05T00:50:46.591Z,96193.03
2022-08-05T00:54:00.841Z,96186.59
2022-08-05T00:56:05.021Z,96186.00
2022-08-05T00:58:32.173Z,96186.59
2022-08-05T01:00:59.530Z,96181.88
2022-08-05T01:03:30.924Z,96189.59
2022-08-05T01:06:01.173Z,96186.66
2022-08-05T01:08:43.437Z,96183.09
2022-08-05T01:11:22.659Z,96173.03
2022-08-05T01:14:04.414Z,96187.50
2022-08-05T01:16:54.893Z,96177.94
2022-08-05T01:19:46.254Z,96176.53
2022-08-05T01:22:27.960Z,96179.69
2022-08-05T01:25:53.242Z,96173.53
2022-08-05T01:28:33.296Z,96173.53
2022-08-05T01:31:14.774Z,96181.88
2022-08-05T01:33:55.339Z,96172.44
2022-08-05T01:36:28.209Z,96177.47
2022-08-05T01:39:01.060Z,96169.13
2022-08-05T01:41:32.614Z,96169.56
2022-08-05T01:44:02.333Z,96172.41
2022-08-05T01:46:42.488Z,96168.63
2022-08-05T01:49:24.144Z,96162.63
2022-08-05T01:52:00.225Z,96164.69
2022-08-05T01:54:52.006Z,96157.78
2022-08-05T01:58:29.305Z,96158.88
2022-08-05T02:00:15.013Z,96159.38
2022-08-05T02:02:46.424Z,96159.53
2022-08-05T02:05:23.547Z,96160.50
2022-08-05T02:08:00.076Z,96152.03
2022-08-05T02:10:33.253Z,96148.88
2022-08-05T02:13:16.128Z,96149.19
2022-08-05T02:16:04.973Z,96146.41
2022-08-05T02:18:49.733Z,96141.38
2022-08-05T02:21:20.023Z,96147.22
2022-08-05T02:23:52.424Z,96144.53
2022-08-05T02:26:26.594Z,96148.63
2022-08-05T02:28:56.492Z,96146.13
2022-08-05T02:31:29.016Z,96146.94
2022-08-05T02:34:09.275Z,96136.56
2022-08-05T02:36:42.775Z,96142.84
2022-08-05T02:39:11.302Z,96137.16
2022-08-05T02:41:57.606Z,96119.44
2022-08-05T02:44:28.975Z,96125.06
2022-08-05T02:47:00.329Z,96127.44
2022-08-05T02:49:36.831Z,96126.34
2022-08-05T02:52:09.510Z,96132.97
2022-08-05T02:54:42.254Z,96125.38
2022-08-05T02:58:20.176Z,96127.28
2022-08-05T03:00:03.053Z,96128.25
2022-08-05T03:02:35.812Z,96119.59
2022-08-05T03:05:05.497Z,96126.22
2022-08-05T03:07:59.359Z,96125.28
2022-08-05T03:10:21.814Z,96127.94
2022-08-05T03:12:54.418Z,96128.72
2022-08-05T03:15:24.393Z,96129.53
2022-08-05T03:17:59.530Z,96117.44
2022-08-05T03:20:27.299Z,96129.66
2022-08-05T03:22:57.651Z,96122.59
2022-08-05T03:25:32.587Z,96123.72
2022-08-05T03:28:03.653Z,96118.38
2022-08-05T03:30:35.095Z,96109.13
2022-08-05T03:33:03.773Z,96112.09
2022-08-05T03:35:33.861Z,96115.09
2022-08-05T03:38:02.892Z,96113.22
2022-08-05T03:40:31.847Z,96117.28
2022-08-05T03:43:01.470Z,96120.59
2022-08-05T03:45:58.170Z,96113.84
2022-08-05T03:48:30.294Z,96125.97
2022-08-05T03:52:39.292Z,96120.44
2022-08-05T03:55:52.150Z,96124.56
2022-08-05T03:57:29.074Z,96122.03
2022-08-05T04:00:11.812Z,96125.50
2022-08-05T04:02:57.708Z,96124.09
2022-08-05T04:05:34.922Z,96119.22
2022-08-05T04:08:05.655Z,96121.13
2022-08-05T04:10:44.413Z,96118.13
2022-08-05T04:13:12.017Z,96123.47
2022-08-05T04:15:39.771Z,96112.31
2022-08-05T04:18:27.213Z,96113.91
2022-08-05T04:20:56.172Z,96123.59
2022-08-05T04:24:05.676Z,96123.91
2022-08-05T04:26:17.467Z,96115.41
2022-08-05T04:28:50.725Z,96119.03
2022-08-05T04:31:19.012Z,96111.78
2022-08-05T04:34:18.940Z,96118.97
2022-08-05T04:36:44.731Z,96102.47
2022-08-05T04:39:14.118Z,96114.41
2022-08-05T04:41:41.292Z,96114.69
2022-08-05T04:44:09.508Z,96109.31
2022-08-05T04:46:38.623Z,96103.94
2022-08-05T04:49:14.413Z,96105.00
2022-08-05T04:51:44.372Z,96107.88
2022-08-05T04:54:12.274Z,96104.38
2022-08-05T04:56:40.016Z,96107.00
2022-08-05T04:59:21.840Z,96106.34
2022-08-05T05:02:35.329Z,96108.44
2022-08-05T05:04:44.136Z,96101.56
2022-08-05T05:07:17.177Z,96105.88
2022-08-05T05:09:45.892Z,96106.13
2022-08-05T05:12:13.213Z,96105.41
2022-08-05T05:14:49.146Z,96100.75
2022-08-05T05:17:21.200Z,96109.50
2022-08-05T05:19:53.034Z,96105.94
2022-08-05T05:22:24.364Z,96104.31
2022-08-05T05:24:59.819Z,96105.19
2022-08-05T05:27:45.741Z,96110.47
2022-08-05T05:30:31.443Z,96103.66
2022-08-05T05:33:16.888Z,96108.59
2022-08-05T05:35:48.275Z,96105.13
2022-08-05T05:38:22.577Z,96104.94
2022-08-05T05:40:56.082Z,96118.34
2022-08-05T05:43:54.043Z,96106.59
2022-08-05T05:46:17.590Z,96100.44
2022-08-05T05:48:47.971Z,96106.75
2022-08-05T05:51:20.615Z,96105.88
2022-08-05T05:53:57.865Z,96105.19
2022-08-05T05:56:31.861Z,96106.50
2022-08-05T05:59:06.174Z,96107.53
2022-08-05T06:01:40.001Z,96111.34
2022-08-05T06:04:11.836Z,96112.22
2022-08-05T06:06:47.431Z,96114.78
2022-08-05T06:09:27.427Z,96114.22
2022-08-05T06:12:05.775Z,96118.22
2022-08-05T06:14:37.139Z,96114.00
2022-08-05T06:17:22.031Z,96108.50
2022-08-05T06:19:56.678Z,96119.78
2022-08-05T06:22:33.741Z,96107.69
2022-08-05T06:25:25.094Z,96107.09
2022-08-05T06:28:12.677Z,96114.34
2022-08-05T06:30:37.773Z,96116.78
2022-08-05T06:33:05.020Z,96111.63
2022-08-05T06:36:07.011Z,96114.97
2022-08-05T06:38:35.899Z,96116.75
2022-08-05T06:41:08.183Z,96120.03
2022-08-05T06:43:59.266Z,96113.66
2022-08-05T06:46:30.348Z,96107.34
2022-08-05T06:49:00.731Z,96110.63
2022-08-05T06:51:29.931Z,96108.91
2022-08-05T06:54:02.533Z,96111.75
2022-08-05T06:56:33.893Z,96107.75
2022-08-05T06:59:09.468Z,96109.81
2022-08-05T07:01:40.462Z,96105.81
2022-08-05T07:04:08.417Z,96109.97
2022-08-05T07:06:35.774Z,96106.25
2022-08-05T07:09:04.754Z,96104.41
2022-08-05T07:11:36.777Z,96106.75
2022-08-05T07:14:30.313Z,96106.31
2022-08-05T07:17:58.597Z,96105.03
2022-08-05T07:22:38.664Z,96099.41
2022-08-05T07:25:23.553Z,96101.47
2022-08-05T07:28:00.114Z,96107.66
2022-08-05T07:30:33.702Z,96103.25
2022-08-05T07:33:09.451Z,96098.47
2022-08-05T07:36:03.458Z,96093.56
2022-08-05T07:38:33.471Z,96102.72
2022-08-05T07:42:09.286Z,96096.25
2022-08-05T07:43:57.129Z,96092.22
2022-08-05T07:46:26.830Z,96089.66
2022-08-05T07:49:05.006Z,96092.81
2022-08-05T07:51:40.347Z,96096.72
2022-08-05T07:54:10.555Z,96095.81
2022-08-05T07:57:02.704Z,96087.84
2022-08-05T07:59:38.176Z,96088.38
2022-08-05T08:02:16.596Z,96094.38
2022-08-05T08:04:49.360Z,96095.66
2022-08-05T08:07:22.381Z,96099.25
2022-08-05T08:09:53.147Z,96096.28
2022-08-05T08:12:27.430Z,96098.41
2022-08-05T08:15:09.625Z,96106.25
2022-08-05T08:17:49.876Z,96102.50
2022-08-05T08:20:45.293Z,96097.16
2022-08-05T08:23:59.963Z,96098.50
2022-08-05T08:26:02.688Z,96101.72
2022-08-05T08:28:36.482Z,96105.00
2022-08-05T08:31:10.024Z,96101.25
2022-08-05T08:33:45.338Z,96098.84
2022-08-05T08:36:38.428Z,96095.97
2022-08-05T08:39:00.057Z,96100.78
2022-08-05T08:41:52.102Z,96094.47
2022-08-05T08:45:18.731Z,96094.25
2022-08-05T08:47:21.905Z,96096.84
2022-08-05T08:50:06.048Z,96090.44
2022-08-05T08:52:54.573Z,96089.38
2022-08-05T08:55:31.877Z,96092.97
2022-08-05T08:58:12.909Z,96092.38
2022-08-05T09:00:42.035Z,96095.19
2022-08-05T09:03:11.746Z,96094.09
2022-08-05T09:06:08.765Z,96096.47
2022-08-05T09:08:30.693Z,96088.06
2022-08-05T09:10:58.692Z,96085.81
2022-08-05T09:13:31.409Z,96089.00
2022-08-05T09:15:59.853Z,96077.00
2022-08-05T09:18:27.333Z,96082.53
2022-08-05T09:20:54.851Z,96085.34
2022-08-05T09:23:23.445Z,96080.00
2022-08-05T09:26:09.351Z,96075.03
2022-08-05T09:28:39.727Z,96073.13
2022-08-05T09:31:23.318Z,96076.31
2022-08-05T09:34:05.551Z,96077.09
2022-08-05T09:36:55.377Z,96074.00
2022-08-05T09:39:41.571Z,96074.06
2022-08-05T09:42:24.399Z,96069.00
2022-08-05T09:45:03.129Z,96070.16
2022-08-05T09:47:36.314Z,96070.16
2022-08-05T09:50:37.683Z,96067.81
2022-08-05T09:53:06.332Z,96057.28
2022-08-05T09:55:57.382Z,96068.50
2022-08-05T09:58:24.821Z,96064.63
2022-08-05T10:01:15.393Z,96063.78
2022-08-05T10:03:59.399Z,96066.03
2022-08-05T10:06:31.069Z,96055.09
2022-08-05T10:09:28.279Z,96063.19
2022-08-05T10:12:30.199Z,96056.91
2022-08-05T10:15:20.675Z,96051.38
2022-08-05T10:18:07.852Z,96057.19
2022-08-05T10:20:38.973Z,96055.38
2022-08-05T10:23:08.905Z,96054.00
2022-08-05T10:25:57.573Z,96047.00
2022-08-05T10:28:29.185Z,96047.88
2022-08-05T10:32:49.433Z,96044.63
2022-08-05T10:33:52.375Z,96044.03
2022-08-05T10:36:23.743Z,96038.47
2022-08-05T10:39:01.190Z,96038.06
2022-08-05T10:41:46.742Z,96036.06
2022-08-05T10:44:18.706Z,96037.56
2022-08-05T10:46:53.990Z,96031.28
2022-08-05T10:49:27.100Z,96031.22
2022-08-05T10:52:05.020Z,96024.88
2022-08-05T10:55:05.767Z,96025.25
2022-08-05T10:57:33.938Z,96024.63
2022-08-05T11:00:19.067Z,96021.19
2022-08-05T11:13:54.739Z,96019.16
2022-08-05T11:16:33.608Z,96021.16
2022-08-05T11:20:10.721Z,96023.69
2022-08-05T11:22:44.335Z,96015.97
2022-08-05T11:26:04.085Z,96018.72
2022-08-05T11:28:24.902Z,96014.19
2022-08-05T11:31:06.731Z,96016.25
2022-08-05T11:33:45.997Z,96010.56
2022-08-05T11:36:34.270Z,96013.81
2022-08-05T11:39:09.704Z,96018.75
2022-08-05T11:42:02.085Z,96014.75
2022-08-05T11:44:40.298Z,96014.63
2022-08-05T11:47:11.210Z,96015.63
2022-08-05T11:49:49.781Z,96013.00
2022-08-05T11:52:29.193Z,96011.31
2022-08-05T11:54:59.253Z,96011.84
2022-08-05T11:57:39.329Z,96008.19
2022-08-05T12:00:30.863Z,96015.81
2022-08-05T12:02:58.422Z,96015.31
2022-08-05T12:05:36.173Z,96012.06
2022-08-05T12:08:11.247Z,96016.69
2022-08-05T12:10:45.316Z,96009.25
2022-08-05T12:13:28.031Z,96006.75
2022-08-05T12:16:14.458Z,96009.19
2022-08-05T12:18:52.220Z,96008.19
2022-08-05T12:21:30.291Z,96004.56
2022-08-05T12:24:07.399Z,95994.16
2022-08-05T12:26:36.118Z,95997.22
2022-08-05T12:29:09.778Z,95993.78
2022-08-05T12:31:53.650Z,95996.38
2022-08-05T12:34:28.817Z,95999.50
2022-08-05T12:36:58.494Z,95991.53
2022-08-05T12:39:27.883Z,95978.53
2022-08-05T12:42:02.334Z,95993.50
2022-08-05T12:44:34.181Z,95992.13
2022-08-05T12:47:02.747Z,95982.94
2022-08-05T12:50:03.483Z,95981.31
2022-08-05T12:52:41.709Z,95981.72
2022-08-05T12:55:32.521Z,95984.75
2022-08-05T12:58:52.568Z,95976.00
2022-08-05T13:02:00.941Z,95982.25
2022-08-05T13:03:43.302Z,95978.56
2022-08-05T13:06:16.381Z,95973.22
2022-08-05T13:08:49.131Z,95973.44
2022-08-05T13:12:01.102Z,95973.66
2022-08-05T13:14:37.577Z,95972.50
2022-08-05T13:17:31.640Z,95969.88
2022-08-05T13:20:18.198Z,95958.25
2022-08-05T13:22:51.532Z,95959.56
2022-08-05T13:25:21.942Z,95955.84
2022-08-05T13:27:52.133Z,95965.81
2022-08-05T13:30:34.658Z,95961.78
2022-08-05T13:33:04.417Z,95962.22
2022-08-05T13:35:47.114Z,95956.19
2022-08-05T13:38:30.482Z,95952.59
2022-08-05T13:41:01.515Z,95946.53
2022-08-05T13:43:45.652Z,95953.25
2022-08-05T13:46:35.854Z,95945.09
2022-08-05T13:49:05.005Z,95947.22
2022-08-05T13:51:41.147Z,95939.50
2022-08-05T13:54:12.666Z,95940.28
2022-08-05T13:56:50.410Z,95943.22
2022-08-05T13:59:27.284Z,95942.13
2022-08-05T14:01:58.755Z,95938.22
2022-08-05T14:04:51.846Z,95930.38
2022-08-05T14:07:26.337Z,95924.47
2022-08-05T14:10:18.880Z,95931.47
2022-08-05T14:12:48.942Z,95929.69
2022-08-05T14:16:08.113Z,95925.72
2022-08-05T14:18:04.821Z,95928.41
2022-08-05T14:20:32.253Z,95922.69
2022-08-05T14:23:00.132Z,95934.44
2022-08-05T14:25:30.187Z,95929.94
2022-08-05T14:27:58.462Z,95941.19
2022-08-05T14:30:28.001Z,95935.38
2022-08-05T14:32:56.917Z,95942.38
2022-08-05T14:35:37.483Z,95942.78
2022-08-05T14:38:32.761Z,95946.22
2022-08-05T14:40:59.772Z,95942.47
2022-08-05T14:43:58.832Z,95940.13
2022-08-05T14:46:14.734Z,95930.31
2022-08-05T14:48:41.858Z,95930.16
2022-08-05T14:51:09.814Z,95919.44
2022-08-05T14:53:44.450Z,95930.31
2022-08-05T14:56:13.323Z,95939.72
2022-08-05T14:58:47.713Z,95948.19
2022-08-05T15:01:47.089Z,95948.38
2022-08-05T15:04:11.620Z,95946.41
2022-08-05T15:06:40.527Z,95946.66
2022-08-05T15:09:08.052Z,95947.50
2022-08-05T15:11:52.348Z,95947.28
2022-08-05T15:14:35.837Z,95947.88
2022-08-05T15:17:44.461Z,95952.22
2022-08-05T15:19:57.173Z,95955.44
2022-08-05T15:22:26.997Z,95954.38
2022-08-05T15:24:56.453Z,95958.00
2022-08-05T15:27:25.472Z,95958.50
2022-08-05T15:29:56.629Z,95970.69
2022-08-05T15:32:28.862Z,95962.22
2022-08-05T15:34:57.619Z,95968.50
2022-08-05T15:38:09.295Z,95973.19
2022-08-05T15:41:01.275Z,95973.59
2022-08-05T15:43:12.688Z,95972.44
2022-08-05T15:45:46.084Z,95970.53
2022-08-05T15:48:15.426Z,95959.69
2022-08-05T15:50:43.766Z,95970.19
2022-08-05T15:53:13.852Z,95962.88
2022-08-05T15:56:04.010Z,95969.09
2022-08-05T15:58:35.711Z,95969.50
2022-08-05T16:01:16.610Z,95966.78
2022-08-05T16:03:48.613Z,95968.75
2022-08-05T16:06:20.206Z,95959.88
2022-08-05T16:08:50.314Z,95961.84
2022-08-05T16:11:20.807Z,95959.50
2022-08-05T16:14:06.172Z,95960.72
2022-08-05T16:16:33.933Z,95959.19
2022-08-05T16:19:01.212Z,95960.75
2022-08-05T16:21:58.273Z,95955.31
2022-08-05T16:24:39.864Z,95960.00
2022-08-05T16:27:04.460Z,95959.25
2022-08-05T16:29:37.581Z,95957.69
2022-08-05T16:32:09.668Z,95972.44
2022-08-05T16:34:39.229Z,95963.16
2022-08-05T16:38:02.700Z,95967.41
2022-08-05T16:40:04.295Z,95968.22
2022-08-05T16:42:34.927Z,95970.56
2022-08-05T16:45:06.058Z,95971.69
2022-08-05T16:47:54.320Z,95970.16
2022-08-05T16:50:24.653Z,95965.50
2022-08-05T16:52:51.895Z,95967.03
2022-08-05T16:55:20.454Z,95979.06
2022-08-05T16:57:59.752Z,95976.72
2022-08-05T17:00:34.416Z,95975.19
2022-08-05T17:03:03.820Z,95982.53
2022-08-05T17:05:37.019Z,95976.75
2022-08-05T17:08:05.141Z,95983.34
2022-08-05T17:10:35.132Z,95980.94
2022-08-05T17:13:04.972Z,95982.50
2022-08-05T17:15:48.937Z,95985.22
2022-08-05T17:18:18.907Z,95990.25
2022-08-05T17:20:46.334Z,95983.25
2022-08-05T17:23:41.978Z,95987.13
2022-08-05T17:26:02.262Z,95997.97
2022-08-05T17:28:29.749Z,95992.13
2022-08-05T17:30:57.065Z,95997.19
2022-08-05T17:33:25.895Z,96000.63
2022-08-05T17:36:09.197Z,96001.41
2022-08-05T17:38:39.705Z,96015.31
2022-08-05T17:41:22.800Z,96011.78
2022-08-05T17:43:55.776Z,96015.25
2022-08-05T17:46:25.175Z,96016.00
2022-08-05T17:48:52.622Z,96014.41
2022-08-05T17:51:21.579Z,96022.13
2022-08-05T17:53:50.929Z,96026.34
2022-08-05T17:56:22.840Z,96024.44
2022-08-05T17:58:51.088Z,96023.25
2022-08-05T18:01:19.101Z,96022.84
2022-08-05T18:03:59.550Z,96022.03
2022-08-05T18:06:32.435Z,96017.75
2022-08-05T18:08:59.814Z,96015.38
2022-08-05T18:11:33.221Z,96011.88
2022-08-05T18:14:13.690Z,96000.97
2022-08-05T18:16:52.244Z,96002.47
2022-08-05T18:19:22.823Z,95995.03
2022-08-05T18:22:09.592Z,95997.69
2022-08-05T18:24:39.582Z,95997.25
2022-08-05T18:27:12.551Z,95992.94
2022-08-05T18:29:53.629Z,95987.47
2022-08-05T18:32:28.321Z,95992.47
2022-08-05T18:34:57.414Z,96000.53
2022-08-05T18:37:33.616Z,95995.03
2022-08-05T18:40:34.545Z,96007.31
2022-08-05T18:42:55.517Z,95994.88
2022-08-05T18:45:23.146Z,96002.19
2022-08-05T18:47:56.813Z,95997.47
2022-08-05T18:50:46.356Z,95993.63
2022-08-05T18:53:19.218Z,96002.00
2022-08-05T18:55:49.693Z,96004.31
2022-08-05T18:58:16.973Z,95998.03
2022-08-05T19:00:44.359Z,96005.38
2022-08-05T19:03:15.613Z,96007.28
2022-08-05T19:06:13.369Z,96014.59
2022-08-05T19:08:31.250Z,96016.38
2022-08-05T19:11:04.876Z,96028.31
2022-08-05T19:13:35.560Z,96026.78
2022-08-05T19:16:04.132Z,96026.00
2022-08-05T19:18:32.296Z,96015.50
2022-08-05T19:21:00.014Z,96019.63
2022-08-05T19:24:05.377Z,96009.91
2022-08-05T19:26:16.852Z,96015.28
2022-08-05T19:28:44.189Z,96013.63
2022-08-05T19:31:17.890Z,96026.19
2022-08-05T19:33:48.401Z,96035.06
2022-08-05T19:36:25.216Z,96038.88
2022-08-05T19:38:55.194Z,96051.59
2022-08-05T19:42:05.621Z,96053.84
2022-08-05T19:44:15.853Z,96066.91
2022-08-05T19:46:43.770Z,96061.94
2022-08-05T19:49:16.394Z,96064.16
2022-08-05T19:52:08.238Z,96058.34
2022-08-05T19:54:34.245Z,96070.69
2022-08-05T19:57:09.508Z,96059.84
2022-08-05T20:00:01.247Z,96056.44
2022-08-05T20:02:27.718Z,96063.75
2022-08-05T20:04:58.959Z,96083.00
2022-08-05T20:07:46.567Z,96093.09
2022-08-05T20:10:17.447Z,96094.09
2022-08-05T20:12:49.094Z,96107.94
2022-08-05T20:15:23.302Z,96100.91
2022-08-05T20:18:10.238Z,96095.13
2022-08-05T20:20:55.345Z,96092.03
2022-08-05T20:23:39.653Z,96086.22
2022-08-05T20:26:15.213Z,96086.94
2022-08-05T20:28:45.733Z,96086.09
2022-08-05T20:31:13.253Z,96085.63
2022-08-05T20:33:42.326Z,96080.19
2022-08-05T20:36:11.231Z,96080.25
2022-08-05T20:38:40.848Z,96082.09
2022-08-05T20:41:23.993Z,96073.84
2022-08-05T20:43:58.969Z,96077.19
2022-08-05T20:46:30.541Z,96079.81
2022-08-05T20:48:59.093Z,96067.56
2022-08-05T20:51:26.733Z,96075.38
2022-08-05T20:53:56.532Z,96071.44
2022-08-05T20:56:31.022Z,96071.25
2022-08-05T20:59:13.943Z,96070.38
2022-08-05T21:01:43.355Z,96079.03
2022-08-05T21:04:10.881Z,96078.03
2022-08-05T21:06:45.056Z,96080.56
2022-08-05T21:09:14.924Z,96081.22
2022-08-05T21:12:09.587Z,96085.38
2022-08-05T21:14:34.795Z,96088.06
2022-08-05T21:17:06.388Z,96087.59
2022-08-05T21:19:46.631Z,96074.13
2022-08-05T21:22:17.719Z,96077.16
2022-08-05T21:24:48.895Z,96083.53
2022-08-05T21:27:18.773Z,96081.75
2022-08-05T21:29:48.657Z,96083.31
2022-08-05T21:32:27.122Z,96080.63
2022-08-05T21:35:09.032Z,96084.81
2022-08-05T21:37:47.195Z,96082.06
2022-08-05T21:40:16.659Z,96080.44
2022-08-05T21:42:45.791Z,96088.06
2022-08-05T21:45:25.138Z,96085.22
2022-08-05T21:48:06.241Z,96093.28
2022-08-05T21:50:34.981Z,96091.72
2022-08-05T21:53:17.463Z,96096.59
2022-08-05T21:56:05.688Z,96091.91
2022-08-05T21:58:33.253Z,96086.81
2022-08-05T22:01:00.754Z,96090.28
2022-08-05T22:03:52.379Z,96090.94
2022-08-05T22:06:22.557Z,96089.66
2022-08-05T22:08:52.199Z,96091.22
2022-08-05T22:11:35.425Z,96088.09
2022-08-05T22:14:19.716Z,96093.13
2022-08-05T22:16:56.984Z,96097.56
2022-08-05T22:20:01.394Z,96099.75
2022-08-05T22:22:14.428Z,96094.22
2022-08-05T22:25:01.014Z,96102.00
2022-08-05T22:28:09.438Z,96105.03
2022-08-05T22:30:35.282Z,96090.47
2022-08-05T22:33:15.729Z,96094.66
2022-08-05T22:35:48.566Z,96090.75
2022-08-05T22:38:16.733Z,96091.09
2022-08-05T22:40:50.128Z,96099.84
2022-08-05T22:43:36.872Z,96099.31
2022-08-05T22:46:12.192Z,96096.22
2022-08-05T22:48:41.048Z,96102.41
2022-08-05T22:51:16.085Z,96100.84
2022-08-05T22:53:51.998Z,96099.78
2022-08-05T22:56:30.326Z,96095.25
2022-08-05T22:59:04.123Z,96093.63
2022-08-05T23:02:04.293Z,96089.19
2022-08-05T23:04:32.773Z,96088.19
2022-08-05T23:07:00.090Z,96078.50
2022-08-05T23:09:58.428Z,96078.06
2022-08-05T23:12:16.621Z,96082.75
2022-08-05T23:14:44.493Z,96081.56
2022-08-05T23:17:32.699Z,96084.31
2022-08-05T23:20:16.410Z,96095.66
2022-08-05T23:22:47.240Z,96095.31
2022-08-05T23:25:17.149Z,96097.88
2022-08-05T23:28:07.197Z,96090.78
2022-08-05T23:30:40.226Z,96099.84
2022-08-05T23:33:22.109Z,96095.06
2022-08-05T23:35:55.988Z,96097.19
2022-08-05T23:38:26.919Z,96083.25
2022-08-05T23:40:54.452Z,96093.41
2022-08-05T23:43:25.443Z,96093.09
2022-08-05T23:46:19.654Z,96090.53
2022-08-05T23:48:59.608Z,96093.66
2022-08-05T23:51:55.461Z,96091.97
2022-08-05T23:54:36.537Z,96095.56
2022-08-05T23:57:07.420Z,96090.56
